Baker, West Virginia
Current Conditions -  °F | °C
As of 11:35 AM on Sunday 21 Dec 2014 (Local Time) from KW99 Reporting Station
Overcast Overcast  
Wind Chill: 37°   Ceiling: 5000
Heat Index: 37°   Visibility: 10mi
Dew Point: 24°   Wind: 0mph
Humidity: 60%   Direction: NA
Pressure: 30.31"   Gusts: NA
Location:  39.04°N, 78.74°W
Report Text: KW99 211635Z AUTO 00000KT 10SM SCT033 OVC050 03/M04 A3031 RMK AO2 T00261045
Loading
Personal Weather Stations






























Interactive Weather Map New forecast layout! Learn more

10-Day Weather Forecast

Advertisements
Track Severe Weather on mobile